Time;durP1;ratioP1;P1;durP2;ratioP2;P2;SDS_P1;SDS_P2;PMS_P1;PMS_P2;Temp;Humidity;BMP_temperature;BMP_pressure;BME280_temperature;BME280_humidity;BME280_pressure;Samples;Min_cycle;Max_cycle;Signal;HPM_P1;HPM_P2
2023/01/27 00:01:07;;;;;;;69.90;31.90;;;1.20;66.30;;;;;;4633102;30;115866;-81
2023/01/27 00:03:36;;;;;;;70.20;32.42;;;1.20;66.20;;;;;;4631875;30;115108;-81
2023/01/27 00:06:05;;;;;;;76.60;33.72;;;1.20;66.10;;;;;;4647156;30;115111;-82
2023/01/27 00:08:32;;;;;;;71.53;33.55;;;1.20;66.10;;;;;;4634277;30;114692;-82
2023/01/27 00:13:46;;;;;;;68.70;31.75;;;1.20;66.20;;;;;;4648313;30;114711;-81
2023/01/27 00:16:13;;;;;;;77.82;33.25;;;1.10;66.20;;;;;;4619769;30;114738;-81
2023/01/27 00:18:41;;;;;;;70.60;32.25;;;1.10;66.10;;;;;;4634015;30;114738;-80
2023/01/27 00:26:41;;;;;;;70.20;31.52;;;1.10;66.30;;;;;;4634784;30;114848;-81
2023/01/27 00:29:08;;;;;;;69.93;33.10;;;1.10;66.30;;;;;;4634327;30;114548;-81
2023/01/27 00:34:21;;;;;;;71.75;32.20;;;1.10;66.40;;;;;;4644062;30;114663;-80
2023/01/27 00:36:49;;;;;;;74.05;33.35;;;1.10;66.50;;;;;;4651027;30;115980;-81
2023/01/27 00:39:16;;;;;;;70.72;32.75;;;1.00;66.40;;;;;;4650915;30;114648;-81
2023/01/27 00:41:44;;;;;;;74.00;33.60;;;1.00;66.40;;;;;;4649560;30;115454;-82
2023/01/27 00:44:14;;;;;;;67.28;30.95;;;1.10;66.30;;;;;;4648539;30;115336;-81
2023/01/27 00:46:41;;;;;;;71.03;33.92;;;1.00;66.30;;;;;;4620368;30;114626;-81
2023/01/27 00:49:09;;;;;;;74.50;34.10;;;1.10;66.40;;;;;;4651043;30;114817;-81
2023/01/27 00:51:37;;;;;;;67.65;30.85;;;1.00;66.40;;;;;;4648645;30;115295;-81
2023/01/27 00:54:04;;;;;;;66.97;32.38;;;1.00;66.40;;;;;;4648397;30;114898;-82
2023/01/27 00:56:32;;;;;;;71.32;32.33;;;0.90;66.40;;;;;;4620814;30;114511;-80
2023/01/27 00:58:59;;;;;;;76.13;33.17;;;0.90;66.40;;;;;;4649937;30;115293;-81
2023/01/27 01:01:28;;;;;;;76.25;34.17;;;0.90;66.40;;;;;;4633928;30;115801;-81
2023/01/27 01:03:57;;;;;;;74.07;34.63;;;0.90;66.50;;;;;;4619640;30;117382;-81
2023/01/27 01:06:25;;;;;;;77.40;34.35;;;0.80;66.60;;;;;;4648552;30;114687;-80
2023/01/27 01:08:52;;;;;;;72.60;34.30;;;0.90;66.70;;;;;;4634789;30;114987;-82
2023/01/27 01:11:20;;;;;;;79.70;34.63;;;0.80;66.70;;;;;;4648164;30;115053;-81
2023/01/27 01:13:47;;;;;;;76.13;34.83;;;0.90;66.70;;;;;;4649282;30;116757;-81
2023/01/27 01:16:18;;;;;;;72.00;34.03;;;0.90;66.70;;;;;;4649088;30;115710;-81
2023/01/27 01:18:45;;;;;;;77.78;33.40;;;0.90;66.70;;;;;;4634866;30;114564;-83
2023/01/27 01:21:13;;;;;;;82.03;35.10;;;0.90;66.80;;;;;;4618720;30;115275;-81
2023/01/27 01:23:42;;;;;;;82.53;36.70;;;1.00;66.80;;;;;;4645150;30;114739;-81
2023/01/27 01:26:11;;;;;;;77.53;36.13;;;0.90;66.80;;;;;;4663365;30;116341;-81
2023/01/27 01:28:38;;;;;;;73.07;34.95;;;1.00;66.80;;;;;;4648700;30;114678;-81
2023/01/27 01:31:08;;;;;;;83.32;37.95;;;1.00;66.70;;;;;;4647647;30;115301;-81
2023/01/27 01:33:36;;;;;;;84.53;36.78;;;0.90;66.70;;;;;;4647452;30;115378;-81
2023/01/27 01:36:09;;;;;;;86.28;39.03;;;0.90;66.80;;;;;;4636539;30;114557;-83
2023/01/27 01:38:36;;;;;;;83.30;37.65;;;1.00;66.70;;;;;;4622667;30;114978;-83
2023/01/27 01:41:05;;;;;;;88.35;38.85;;;0.90;66.80;;;;;;4650822;30;115422;-81
2023/01/27 01:43:33;;;;;;;83.30;38.65;;;0.90;66.80;;;;;;4636303;30;115184;-80
2023/01/27 01:46:01;;;;;;;83.72;38.85;;;0.90;66.80;;;;;;4651730;30;115045;-83
2023/01/27 01:48:53;;;;;;;83.90;38.95;;;0.90;66.90;;;;;;4638175;30;115661;-81
2023/01/27 01:51:33;;;;;;;84.78;38.22;;;0.90;66.80;;;;;;4650742;30;115734;-81
2023/01/27 01:54:02;;;;;;;82.70;38.53;;;0.90;66.80;;;;;;4636648;30;115088;-81
2023/01/27 01:56:41;;;;;;;90.55;40.40;;;0.90;66.80;;;;;;4636463;30;114517;-81
2023/01/27 01:59:43;;;;;;;97.15;44.03;;;0.90;66.90;;;;;;4637264;30;114668;-81
2023/01/27 02:02:13;;;;;;;95.65;42.38;;;0.90;67.00;;;;;;4650584;30;117227;-81
2023/01/27 02:05:05;;;;;;;100.40;46.72;;;0.80;67.00;;;;;;4622312;30;114708;-81
2023/01/27 02:07:50;;;;;;;99.30;43.08;;;0.90;67.00;;;;;;4652440;30;114541;-82
2023/01/27 02:10:17;;;;;;;99.28;43.53;;;0.90;67.10;;;;;;4637020;30;115210;-81
2023/01/27 02:12:44;;;;;;;94.13;41.75;;;0.80;67.10;;;;;;4651676;30;115146;-81
2023/01/27 02:15:12;;;;;;;99.40;45.00;;;0.80;67.10;;;;;;4652371;30;114646;-80
2023/01/27 02:17:39;;;;;;;99.30;42.95;;;0.80;67.10;;;;;;4651541;30;114879;-81
2023/01/27 02:20:43;;;;;;;98.13;44.42;;;0.80;67.10;;;;;;4651035;30;114754;-81
2023/01/27 02:23:31;;;;;;;95.93;44.05;;;0.80;67.10;;;;;;4641483;30;115312;-81
2023/01/27 02:26:04;;;;;;;99.43;43.45;;;0.70;67.30;;;;;;4656112;30;115438;-82
2023/01/27 02:28:32;;;;;;;111.45;47.85;;;0.70;67.30;;;;;;4654431;30;114770;-81
2023/01/27 02:31:02;;;;;;;105.55;47.15;;;0.70;67.40;;;;;;4639162;30;114633;-82
2023/01/27 02:33:29;;;;;;;102.07;46.78;;;0.70;67.40;;;;;;4651825;30;115467;-82
2023/01/27 02:36:06;;;;;;;103.63;44.33;;;0.60;67.40;;;;;;4652347;30;119777;-82
2023/01/27 02:38:45;;;;;;;109.70;47.67;;;0.70;67.50;;;;;;4637446;30;117738;-82
2023/01/27 02:41:34;;;;;;;111.93;48.92;;;0.70;67.60;;;;;;4636263;30;114741;-81
2023/01/27 02:44:02;;;;;;;110.72;46.97;;;0.70;67.60;;;;;;4650547;30;115081;-81
2023/01/27 02:46:30;;;;;;;106.97;47.90;;;0.70;67.60;;;;;;4649785;30;115981;-81
2023/01/27 02:48:57;;;;;;;108.47;48.38;;;0.70;67.60;;;;;;4635322;30;115207;-82
2023/01/27 02:51:25;;;;;;;102.97;46.30;;;0.70;67.60;;;;;;4637068;30;114817;-81
2023/01/27 02:53:52;;;;;;;111.80;45.75;;;0.70;67.70;;;;;;4636505;30;116536;-81
2023/01/27 02:56:21;;;;;;;108.93;47.65;;;0.70;67.70;;;;;;4621957;30;115225;-82
2023/01/27 02:58:48;;;;;;;106.30;46.42;;;0.70;67.70;;;;;;4651601;30;114514;-81
2023/01/27 03:06:18;;;;;;;99.13;44.25;;;0.80;67.60;;;;;;4649885;30;115060;-81
2023/01/27 03:08:46;;;;;;;101.53;46.53;;;0.70;67.80;;;;;;4635855;30;118260;-81
2023/01/27 03:12:18;;;;;;;99.72;46.38;;;0.70;67.80;;;;;;4636365;30;114672;-81
2023/01/27 03:14:02;;;;;;;104.75;46.65;;;0.70;67.80;;;;;;4650651;30;114560;-81
2023/01/27 03:19:16;;;;;;;93.05;44.53;;;0.70;67.80;;;;;;4637645;30;115797;-81
2023/01/27 03:21:44;;;;;;;94.68;42.53;;;0.70;67.70;;;;;;4650318;30;114770;-81
2023/01/27 03:24:11;;;;;;;105.22;44.05;;;0.70;67.70;;;;;;4636529;30;114475;-81
2023/01/27 03:26:39;;;;;;;96.40;42.00;;;0.70;67.80;;;;;;4634508;30;115569;-81
2023/01/27 03:32:08;;;;;;;105.20;46.70;;;0.70;67.70;;;;;;4616794;30;116182;-81
2023/01/27 03:34:35;;;;;;;96.85;43.08;;;0.60;67.80;;;;;;4635084;30;114784;-82
2023/01/27 03:48:13;;;;;;;104.10;45.15;;;0.70;67.90;;;;;;4649357;30;118273;-81
2023/01/27 03:50:51;;;;;;;99.50;45.03;;;0.70;67.90;;;;;;4649269;30;114745;-82
2023/01/27 03:53:20;;;;;;;95.35;42.60;;;0.80;67.80;;;;;;4651119;30;114680;-82
2023/01/27 03:55:47;;;;;;;96.30;43.25;;;0.70;67.80;;;;;;4650450;30;116770;-81
2023/01/27 03:58:21;;;;;;;100.82;47.30;;;0.70;67.80;;;;;;4635060;30;115182;-81
2023/01/27 04:00:51;;;;;;;98.57;47.33;;;0.80;67.80;;;;;;4635791;30;115382;-82
2023/01/27 04:08:58;;;;;;;99.20;43.85;;;0.70;67.80;;;;;;4648807;30;116368;-81
2023/01/27 04:14:12;;;;;;;101.32;43.22;;;0.70;67.90;;;;;;4651897;30;114843;-82
2023/01/27 04:16:40;;;;;;;97.22;42.67;;;0.60;67.90;;;;;;4652197;30;114657;-82
2023/01/27 04:19:08;;;;;;;93.95;44.50;;;0.60;67.90;;;;;;4649497;30;115168;-82
2023/01/27 04:21:35;;;;;;;92.80;44.00;;;0.60;67.90;;;;;;4663736;30;114808;-82
2023/01/27 04:24:03;;;;;;;83.45;39.72;;;0.60;67.90;;;;;;4664746;30;114751;-82
2023/01/27 04:26:33;;;;;;;84.22;39.85;;;0.60;67.80;;;;;;4636794;30;114650;-81
2023/01/27 04:29:01;;;;;;;82.82;39.97;;;0.50;67.80;;;;;;4649462;30;115277;-81
2023/01/27 04:31:29;;;;;;;88.70;40.47;;;0.50;68.00;;;;;;4649771;30;116298;-81
2023/01/27 04:33:56;;;;;;;86.50;39.03;;;0.50;68.10;;;;;;4618186;30;115081;-80
2023/01/27 04:36:24;;;;;;;81.32;38.30;;;0.50;68.10;;;;;;4633130;30;114535;-80
2023/01/27 04:38:52;;;;;;;93.80;43.67;;;0.50;68.10;;;;;;4632633;30;115212;-80
2023/01/27 04:41:20;;;;;;;82.95;41.03;;;0.60;68.00;;;;;;4632898;30;114818;-81
2023/01/27 04:43:47;;;;;;;80.88;37.13;;;0.60;67.90;;;;;;4646446;30;115245;-81
2023/01/27 04:46:14;;;;;;;78.60;38.35;;;0.60;67.90;;;;;;4632619;30;114578;-81
2023/01/27 04:48:41;;;;;;;81.15;39.03;;;0.60;67.80;;;;;;4632533;30;117358;-81
2023/01/27 04:51:09;;;;;;;78.72;38.10;;;0.50;68.00;;;;;;4632924;30;115822;-81
2023/01/27 04:53:36;;;;;;;82.15;38.63;;;0.50;68.00;;;;;;4633562;30;114569;-81
2023/01/27 04:56:06;;;;;;;76.50;39.38;;;0.60;68.00;;;;;;4646613;30;114630;-80
2023/01/27 04:58:33;;;;;;;79.32;37.72;;;0.60;68.20;;;;;;4630605;30;115577;-81
2023/01/27 05:01:00;;;;;;;74.88;35.55;;;0.60;68.10;;;;;;4631609;30;116040;-83
2023/01/27 05:03:28;;;;;;;79.65;38.00;;;0.60;68.10;;;;;;4631993;30;114553;-81
2023/01/27 05:05:55;;;;;;;81.25;38.42;;;0.50;68.10;;;;;;4632196;30;114549;-82
2023/01/27 05:08:22;;;;;;;81.72;38.22;;;0.50;68.20;;;;;;4632724;30;115683;-82
2023/01/27 05:10:51;;;;;;;82.22;38.80;;;0.60;68.30;;;;;;4645548;30;114806;-82
2023/01/27 05:13:19;;;;;;;85.47;41.35;;;0.60;68.30;;;;;;4646404;30;115438;-81
2023/01/27 05:15:46;;;;;;;89.85;40.72;;;0.60;68.40;;;;;;4632405;30;114941;-81
2023/01/27 05:18:14;;;;;;;91.75;44.28;;;0.60;68.30;;;;;;4645514;30;115150;-81
2023/01/27 05:20:41;;;;;;;86.05;40.53;;;0.60;68.20;;;;;;4645810;30;115243;-82
2023/01/27 05:25:54;;;;;;;89.35;39.47;;;0.60;68.10;;;;;;4629984;30;116842;-81
2023/01/27 05:28:22;;;;;;;85.80;39.60;;;0.60;68.20;;;;;;4631128;30;115723;-81
2023/01/27 05:30:49;;;;;;;83.50;39.83;;;0.50;68.20;;;;;;4646541;30;115200;-82
2023/01/27 05:33:16;;;;;;;82.65;38.03;;;0.50;68.20;;;;;;4637318;30;114504;-83
2023/01/27 05:35:43;;;;;;;82.57;38.47;;;0.50;68.30;;;;;;4650558;30;114731;-81
2023/01/27 05:38:11;;;;;;;79.85;38.72;;;0.40;68.50;;;;;;4648215;30;114651;-81
2023/01/27 05:40:38;;;;;;;81.15;38.00;;;0.40;68.50;;;;;;4646677;30;114756;-80
2023/01/27 05:43:05;;;;;;;81.47;39.83;;;0.30;68.50;;;;;;4634215;30;114782;-81
2023/01/27 05:45:32;;;;;;;78.28;38.78;;;0.30;68.70;;;;;;4648949;30;114696;-81
2023/01/27 05:48:00;;;;;;;86.78;43.53;;;0.20;68.90;;;;;;4647692;30;115133;-82
2023/01/27 05:50:27;;;;;;;89.10;44.63;;;0.20;69.00;;;;;;4648178;30;114789;-81
2023/01/27 05:52:54;;;;;;;86.60;42.00;;;0.20;68.90;;;;;;4634047;30;114537;-82
2023/01/27 05:55:24;;;;;;;83.45;38.03;;;0.20;68.80;;;;;;4656929;30;114431;-82
2023/01/27 05:57:51;;;;;;;89.85;41.55;;;0.10;68.90;;;;;;4658350;30;115151;-83
2023/01/27 06:00:21;;;;;;;86.28;41.08;;;0.10;69.00;;;;;;4656597;30;114948;-83
2023/01/27 06:02:52;;;;;;;83.07;41.78;;;0.00;69.20;;;;;;4645337;30;114985;-81
2023/01/27 06:05:20;;;;;;;86.05;40.17;;;0.00;69.60;;;;;;4659455;30;114760;-81
2023/01/27 06:07:47;;;;;;;100.80;44.33;;;0.10;69.60;;;;;;4659360;30;115111;-83
2023/01/27 06:10:15;;;;;;;89.15;43.60;;;0.00;69.70;;;;;;4656653;30;116280;-82
2023/01/27 06:12:42;;;;;;;90.13;43.72;;;0.00;69.80;;;;;;4660543;30;114914;-82
2023/01/27 06:15:10;;;;;;;92.22;43.80;;;0.00;69.80;;;;;;4656813;30;114906;-83
2023/01/27 06:17:38;;;;;;;88.93;43.75;;;0.00;69.90;;;;;;4661021;30;115300;-82
2023/01/27 06:20:07;;;;;;;93.30;44.35;;;0.00;69.90;;;;;;4659347;30;114854;-82
2023/01/27 06:22:34;;;;;;;90.07;43.60;;;-0.10;69.80;;;;;;4665260;30;114493;-82
2023/01/27 06:25:01;;;;;;;90.53;44.13;;;-0.10;70.00;;;;;;4663461;30;114666;-83
2023/01/27 06:27:28;;;;;;;94.60;42.10;;;-0.20;70.10;;;;;;4665697;30;115125;-83
2023/01/27 06:29:55;;;;;;;93.00;45.13;;;-0.20;70.10;;;;;;4662729;30;114914;-83
2023/01/27 06:32:23;;;;;;;91.15;44.40;;;-0.20;70.20;;;;;;4663167;30;114427;-83
2023/01/27 06:34:52;;;;;;;91.85;41.85;;;-0.20;70.20;;;;;;4644791;30;116305;-83
2023/01/27 06:37:19;;;;;;;96.10;45.67;;;-0.20;70.30;;;;;;4658002;30;115268;-82
2023/01/27 06:39:47;;;;;;;90.20;44.08;;;-0.20;70.40;;;;;;4657968;30;115190;-83
2023/01/27 06:42:14;;;;;;;91.30;42.50;;;-0.30;70.50;;;;;;4645276;30;114840;-82
2023/01/27 06:44:41;;;;;;;93.30;44.88;;;-0.30;70.60;;;;;;4660512;30;115839;-82
2023/01/27 06:47:09;;;;;;;95.25;46.50;;;-0.30;70.70;;;;;;4657334;30;115287;-82
2023/01/27 06:49:36;;;;;;;77.68;38.70;;;-0.20;70.70;;;;;;4655549;30;115791;-82
2023/01/27 06:52:03;;;;;;;83.10;40.33;;;-0.20;70.50;;;;;;4657500;30;115507;-82
2023/01/27 06:54:31;;;;;;;82.63;38.72;;;-0.30;70.40;;;;;;4659060;30;116780;-81
2023/01/27 06:56:58;;;;;;;81.15;41.33;;;-0.30;70.40;;;;;;4654752;30;116361;-81
2023/01/27 06:59:25;;;;;;;75.47;36.88;;;-0.40;70.50;;;;;;4656534;30;114713;-81
2023/01/27 07:01:52;;;;;;;71.68;36.53;;;-0.40;70.40;;;;;;4657423;30;114874;-82
2023/01/27 07:04:20;;;;;;;78.88;35.17;;;-0.40;70.40;;;;;;4656445;30;114603;-82
2023/01/27 07:06:55;;;;;;;76.15;35.28;;;-0.50;70.50;;;;;;4654324;30;115189;-85
2023/01/27 07:09:23;;;;;;;72.35;33.63;;;-0.50;70.50;;;;;;4642892;30;115826;-82
2023/01/27 07:11:52;;;;;;;68.93;33.35;;;-0.50;70.60;;;;;;4657731;30;114576;-82
2023/01/27 07:14:19;;;;;;;81.35;34.67;;;-0.60;70.70;;;;;;4657895;30;114668;-81
2023/01/27 07:16:47;;;;;;;68.68;33.00;;;-0.70;70.80;;;;;;4657394;30;115227;-81
2023/01/27 07:19:15;;;;;;;71.53;36.08;;;-0.70;70.70;;;;;;4656876;30;114858;-82
2023/01/27 07:21:42;;;;;;;72.07;33.25;;;-0.70;70.90;;;;;;4657309;30;114444;-81
2023/01/27 07:24:10;;;;;;;61.25;29.60;;;-0.70;70.90;;;;;;4656315;30;116460;-81
2023/01/27 07:26:46;;;;;;;75.43;34.15;;;-0.70;70.80;;;;;;4631999;30;116159;-81
2023/01/27 07:29:13;;;;;;;67.30;32.33;;;-0.70;70.90;;;;;;4656492;30;114947;-83
2023/01/27 07:31:43;;;;;;;67.72;31.48;;;-0.70;70.80;;;;;;4643573;30;114669;-81
2023/01/27 07:34:11;;;;;;;66.93;31.83;;;-0.70;70.90;;;;;;4656016;30;114655;-82
2023/01/27 07:36:38;;;;;;;65.35;29.50;;;-0.70;70.90;;;;;;4658631;30;116377;-81
2023/01/27 07:39:08;;;;;;;62.95;29.10;;;-0.70;70.90;;;;;;4658170;30;115205;-82
2023/01/27 07:41:36;;;;;;;70.28;35.28;;;-0.70;70.90;;;;;;4660141;30;114592;-81
2023/01/27 07:44:04;;;;;;;68.72;33.05;;;-0.70;70.90;;;;;;4661372;30;117276;-81
2023/01/27 07:46:33;;;;;;;68.43;32.15;;;-0.70;71.00;;;;;;4659626;30;117801;-81
2023/01/27 07:49:00;;;;;;;73.28;33.63;;;-0.70;70.90;;;;;;4657906;30;114736;-82
2023/01/27 07:51:29;;;;;;;66.82;30.75;;;-0.70;71.00;;;;;;4659906;30;114437;-82
2023/01/27 07:53:56;;;;;;;67.38;31.85;;;-0.70;70.90;;;;;;4657642;30;115662;-80
2023/01/27 07:56:28;;;;;;;65.97;32.45;;;-0.80;70.80;;;;;;4639532;30;115854;-82
2023/01/27 07:58:55;;;;;;;71.03;33.25;;;-0.80;70.90;;;;;;4667305;30;115824;-82
2023/01/27 08:01:23;;;;;;;66.25;32.08;;;-0.80;70.90;;;;;;4641537;30;114867;-82
2023/01/27 08:03:52;;;;;;;67.10;32.03;;;-0.70;70.90;;;;;;4656794;30;114546;-82
2023/01/27 08:06:19;;;;;;;66.75;31.83;;;-0.70;70.90;;;;;;4656316;30;115754;-82
2023/01/27 08:08:47;;;;;;;66.35;32.45;;;-0.70;71.00;;;;;;4650271;30;114657;-81
2023/01/27 08:11:14;;;;;;;70.28;31.65;;;-0.60;70.80;;;;;;4650824;30;114461;-82
2023/01/27 08:13:42;;;;;;;67.57;31.45;;;-0.60;70.70;;;;;;4637528;30;115563;-83
2023/01/27 08:16:12;;;;;;;64.18;30.95;;;-0.70;70.60;;;;;;4648785;30;115155;-81
2023/01/27 08:18:39;;;;;;;62.80;30.67;;;-0.70;70.40;;;;;;4637551;30;114708;-80
2023/01/27 08:21:09;;;;;;;61.78;29.63;;;-0.80;70.20;;;;;;4649682;30;114734;-80
2023/01/27 08:23:36;;;;;;;69.65;32.53;;;-0.80;70.30;;;;;;4649819;30;114618;-81
2023/01/27 08:26:05;;;;;;;68.85;32.60;;;-0.80;70.40;;;;;;4648756;30;115162;-81
2023/01/27 08:28:34;;;;;;;61.08;29.23;;;-0.70;70.20;;;;;;4618604;30;119093;-82
2023/01/27 08:31:12;;;;;;;68.07;32.35;;;-0.80;70.00;;;;;;4621438;30;114982;-82
2023/01/27 08:33:39;;;;;;;61.63;29.25;;;-0.80;69.70;;;;;;4650555;30;114494;-81
2023/01/27 08:36:17;;;;;;;65.20;30.75;;;-0.90;69.70;;;;;;4648299;30;115315;-81
2023/01/27 08:38:44;;;;;;;64.13;31.30;;;-0.80;69.80;;;;;;4636120;30;115805;-82
2023/01/27 08:41:15;;;;;;;66.05;33.58;;;-0.80;69.70;;;;;;4649827;30;114599;-83
2023/01/27 08:43:43;;;;;;;55.10;26.17;;;-0.80;69.70;;;;;;4650433;30;114565;-82
2023/01/27 08:46:10;;;;;;;62.70;30.63;;;-0.80;69.60;;;;;;4649915;30;115220;-82
2023/01/27 08:48:37;;;;;;;65.72;30.45;;;-0.80;69.60;;;;;;4650180;30;115638;-82
2023/01/27 08:51:06;;;;;;;67.05;33.90;;;-0.80;69.80;;;;;;4650791;30;115403;-82
2023/01/27 08:53:33;;;;;;;65.38;31.45;;;-0.80;69.90;;;;;;4650136;30;114516;-83
2023/01/27 08:56:06;;;;;;;60.58;30.73;;;-0.80;69.90;;;;;;4648496;30;115371;-83
2023/01/27 08:58:33;;;;;;;61.28;28.70;;;-0.70;69.90;;;;;;4634691;30;115453;-82
2023/01/27 09:01:02;;;;;;;52.65;25.27;;;-0.80;69.90;;;;;;4650766;30;114838;-83
2023/01/27 09:03:30;;;;;;;55.13;27.55;;;-0.70;69.70;;;;;;4635280;30;114601;-82
2023/01/27 09:05:57;;;;;;;58.88;28.80;;;-0.80;69.70;;;;;;4647948;30;115357;-82
2023/01/27 09:08:25;;;;;;;58.40;27.45;;;-0.80;69.80;;;;;;4649637;30;114714;-82
2023/01/27 09:10:52;;;;;;;54.15;26.23;;;-0.70;69.90;;;;;;4635970;30;115943;-82
2023/01/27 09:13:21;;;;;;;51.38;25.83;;;-0.70;69.80;;;;;;4650391;30;114500;-82
2023/01/27 09:15:51;;;;;;;67.40;31.92;;;-0.60;69.60;;;;;;4648571;30;115285;-82
2023/01/27 09:18:19;;;;;;;57.22;27.80;;;-0.60;69.60;;;;;;4634542;30;114976;-81
2023/01/27 09:20:46;;;;;;;51.97;25.05;;;-0.50;69.60;;;;;;4648785;30;116326;-81
2023/01/27 09:23:14;;;;;;;54.45;26.63;;;-0.50;69.10;;;;;;4651353;30;115557;-81
2023/01/27 09:25:43;;;;;;;61.38;30.23;;;-0.60;69.00;;;;;;4648512;30;115247;-81
2023/01/27 09:28:15;;;;;;;55.65;27.60;;;-0.60;69.10;;;;;;4647792;30;114924;-81
2023/01/27 09:30:44;;;;;;;61.33;28.42;;;-0.60;69.10;;;;;;4635701;30;114458;-82
2023/01/27 09:33:13;;;;;;;54.10;27.05;;;-0.60;69.00;;;;;;4632087;30;114459;-81
2023/01/27 09:36:06;;;;;;;62.15;27.73;;;-0.60;69.00;;;;;;4630617;30;117056;-82
2023/01/27 09:38:42;;;;;;;37.50;18.92;;;-0.70;69.00;;;;;;4631585;30;114905;-82
2023/01/27 09:41:37;;;;;;;58.10;27.90;;;-0.70;69.00;;;;;;4631991;30;114872;-82
2023/01/27 09:44:55;;;;;;;54.20;23.65;;;-0.80;69.00;;;;;;4633001;30;114937;-82
2023/01/27 09:47:45;;;;;;;54.47;25.83;;;-0.70;69.20;;;;;;4629047;30;115301;-82
2023/01/27 09:50:45;;;;;;;54.08;26.05;;;-0.80;69.40;;;;;;4632039;30;116952;-82
2023/01/27 09:53:24;;;;;;;57.08;26.65;;;-0.70;69.20;;;;;;4629303;30;114863;-82
2023/01/27 09:56:12;;;;;;;59.10;28.30;;;-0.80;69.10;;;;;;4632717;30;114705;-82
2023/01/27 09:59:03;;;;;;;60.17;29.38;;;-0.80;69.20;;;;;;4647628;30;116230;-81
2023/01/27 10:02:18;;;;;;;53.40;25.02;;;-0.80;69.40;;;;;;4635022;30;115189;-82
2023/01/27 10:05:12;;;;;;;49.83;24.00;;;-0.80;69.30;;;;;;4648662;30;114663;-81
2023/01/27 10:07:52;;;;;;;49.58;24.10;;;-0.90;69.30;;;;;;4648597;30;114598;-81
2023/01/27 10:10:58;;;;;;;45.08;22.58;;;-0.90;69.40;;;;;;4647627;30;115277;-82
2023/01/27 10:13:52;;;;;;;45.67;22.17;;;-0.90;69.30;;;;;;4634243;30;115217;-82
2023/01/27 10:16:31;;;;;;;46.72;20.85;;;-1.00;69.00;;;;;;4632374;30;114696;-81
2023/01/27 10:19:07;;;;;;;48.80;22.30;;;-1.10;69.00;;;;;;4647925;30;114576;-81
2023/01/27 10:21:43;;;;;;;52.10;25.33;;;-1.10;69.20;;;;;;4634357;30;115766;-82
2023/01/27 10:25:02;;;;;;;55.30;23.55;;;-1.20;69.40;;;;;;4634165;30;115090;-81
2023/01/27 10:27:35;;;;;;;49.35;23.98;;;-1.10;69.40;;;;;;4632695;30;117172;-82
2023/01/27 10:30:09;;;;;;;52.38;23.75;;;-1.20;69.30;;;;;;4647889;30;114536;-80
2023/01/27 10:32:45;;;;;;;48.72;23.05;;;-1.10;69.20;;;;;;4631707;30;115793;-82
2023/01/27 10:35:25;;;;;;;38.10;19.43;;;-1.10;69.30;;;;;;4615886;30;114831;-82
2023/01/27 10:38:35;;;;;;;46.13;23.00;;;-1.20;69.10;;;;;;4630130;30;114561;-82
2023/01/27 10:41:24;;;;;;;46.78;19.42;;;-1.20;69.00;;;;;;4627173;30;114776;-82
2023/01/27 10:44:20;;;;;;;39.22;18.77;;;-1.20;69.10;;;;;;4616578;30;118996;-85
2023/01/27 10:47:23;;;;;;;50.92;22.23;;;-1.30;69.20;;;;;;4616931;30;114833;-82
2023/01/27 10:49:57;;;;;;;38.33;19.65;;;-1.20;69.10;;;;;;4630440;30;114638;-82
2023/01/27 10:52:39;;;;;;;;;;;-1.20;69.20;;;;;;4617726;30;114709;-81
2023/01/27 10:55:24;;;;;;;34.22;16.42;;;-1.20;69.30;;;;;;4642365;30;115654;-80
2023/01/27 10:58:01;;;;;;;46.38;21.00;;;-1.20;69.20;;;;;;4615382;30;114975;-82
2023/01/27 11:00:39;;;;;;;44.50;21.30;;;-1.20;69.20;;;;;;4616642;30;114937;-81
2023/01/27 11:03:51;;;;;;;43.30;21.15;;;-1.10;69.20;;;;;;4615234;30;115933;-82
2023/01/27 11:06:23;;;;;;;38.15;19.27;;;-1.10;69.20;;;;;;4621243;30;116430;-82
2023/01/27 11:09:07;;;;;;;43.80;21.42;;;-1.10;69.10;;;;;;4615409;30;116519;-83
2023/01/27 11:11:44;;;;;;;45.47;22.33;;;-1.00;69.00;;;;;;4615401;30;114567;-81
2023/01/27 11:14:47;;;;;;;36.97;19.23;;;-1.00;68.90;;;;;;4629699;30;114575;-82
2023/01/27 11:17:31;;;;;;;42.42;21.02;;;-1.00;68.80;;;;;;4615762;30;115913;-82
2023/01/27 11:20:19;;;;;;;44.88;22.63;;;-1.00;69.00;;;;;;4642641;30;114910;-81
2023/01/27 11:23:03;;;;;;;45.35;22.35;;;-1.10;68.90;;;;;;4616136;30;115302;-81
2023/01/27 11:25:57;;;;;;;45.35;20.88;;;-1.10;68.80;;;;;;4629546;30;115062;-82
2023/01/27 11:28:46;;;;;;;41.83;20.97;;;-1.10;68.80;;;;;;4626346;30;115169;-81
2023/01/27 11:31:33;;;;;;;42.05;21.52;;;-1.10;68.70;;;;;;4628655;30;114670;-82
2023/01/27 11:34:13;;;;;;;39.08;19.10;;;-1.20;68.60;;;;;;4636295;30;114808;-83
2023/01/27 11:36:40;;;;;;;44.83;21.88;;;-1.20;68.70;;;;;;4636287;30;116222;-81
2023/01/27 11:39:10;;;;;;;53.10;22.70;;;-1.20;68.70;;;;;;4649943;30;115591;-81
2023/01/27 11:41:40;;;;;;;49.63;22.95;;;-1.20;68.80;;;;;;4635421;30;114736;-81
2023/01/27 11:44:18;;;;;;;51.15;20.85;;;-1.10;68.90;;;;;;4636166;30;114636;-82
2023/01/27 11:46:46;;;;;;;49.03;23.73;;;-1.00;68.80;;;;;;4650385;30;114868;-82
2023/01/27 11:49:20;;;;;;;50.55;23.85;;;-1.10;68.70;;;;;;4635270;30;115121;-81
2023/01/27 11:51:48;;;;;;;;;;;-1.10;68.80;;;;;;4635146;30;117522;-81
2023/01/27 11:54:21;;;;;;;39.75;20.33;;;-1.00;68.70;;;;;;4651022;30;114552;-82
2023/01/27 11:56:48;;;;;;;46.53;20.63;;;-1.00;68.60;;;;;;4637239;30;114797;-82
2023/01/27 11:59:23;;;;;;;38.60;19.63;;;-1.00;68.50;;;;;;4621429;30;115284;-81
2023/01/27 12:02:35;;;;;;;44.72;21.58;;;-1.00;68.70;;;;;;4621247;30;114849;-82
2023/01/27 12:05:06;;;;;;;44.00;21.02;;;-1.00;68.60;;;;;;4641954;30;115396;-82
2023/01/27 12:07:45;;;;;;;42.45;20.02;;;-1.10;68.60;;;;;;4622174;30;114719;-82
2023/01/27 12:10:41;;;;;;;46.22;21.88;;;-1.00;68.30;;;;;;4635429;30;117985;-82
2023/01/27 12:13:19;;;;;;;43.22;20.52;;;-1.00;68.40;;;;;;4609208;30;117257;-82
2023/01/27 12:15:53;;;;;;;43.30;21.40;;;-1.00;68.30;;;;;;4635265;30;115581;-81
2023/01/27 12:18:22;;;;;;;44.17;22.70;;;-1.00;68.30;;;;;;4645695;30;114635;-83
2023/01/27 12:20:59;;;;;;;39.15;19.52;;;-0.90;68.40;;;;;;4621443;30;119220;-82
2023/01/27 12:23:37;;;;;;;44.92;19.52;;;-0.90;68.00;;;;;;4628397;30;114900;-82
2023/01/27 12:26:36;;;;;;;43.53;22.30;;;-1.00;67.90;;;;;;4623040;30;114651;-81
2023/01/27 12:29:18;;;;;;;47.20;20.70;;;-1.00;68.00;;;;;;4651694;30;114581;-82
2023/01/27 12:31:48;;;;;;;39.88;20.73;;;-0.90;68.10;;;;;;4621656;30;118257;-81
2023/01/27 12:34:31;;;;;;;44.72;21.63;;;-0.90;68.10;;;;;;4633644;30;116846;-82
2023/01/27 12:36:59;;;;;;;35.13;18.27;;;-0.90;68.10;;;;;;4649813;30;115116;-82
2023/01/27 12:39:30;;;;;;;32.92;17.80;;;-0.90;67.90;;;;;;4640971;30;114509;-82
2023/01/27 12:41:57;;;;;;;42.33;19.85;;;-0.90;67.30;;;;;;4662482;30;115164;-82
2023/01/27 12:44:27;;;;;;;44.13;20.27;;;-0.90;67.60;;;;;;4639486;30;116437;-82
2023/01/27 12:47:03;;;;;;;42.40;19.73;;;-0.90;67.70;;;;;;4651243;30;114685;-82
2023/01/27 12:49:36;;;;;;;42.53;19.25;;;-0.90;67.60;;;;;;4651143;30;114560;-83
2023/01/27 12:52:07;;;;;;;35.83;18.42;;;-0.90;67.60;;;;;;4648592;30;117410;-82
2023/01/27 12:54:35;;;;;;;41.13;18.92;;;-0.90;67.70;;;;;;4635676;30;117849;-82
2023/01/27 12:57:05;;;;;;;33.88;16.73;;;-0.90;67.50;;;;;;4651554;30;114894;-82
2023/01/27 12:59:33;;;;;;;38.35;17.73;;;-0.90;67.40;;;;;;4620868;30;114809;-81
2023/01/27 13:02:27;;;;;;;37.95;19.00;;;-0.90;67.40;;;;;;4636892;30;115634;-81
2023/01/27 13:05:01;;;;;;;34.00;15.63;;;-0.90;67.30;;;;;;4636677;30;114879;-82
2023/01/27 13:07:54;;;;;;;34.33;15.48;;;-0.90;67.40;;;;;;4646994;30;114626;-82
2023/01/27 13:10:24;;;;;;;40.80;20.08;;;-0.90;67.30;;;;;;4648921;30;114607;-81
2023/01/27 13:12:58;;;;;;;37.22;18.17;;;-1.00;67.10;;;;;;4634705;30;115665;-80
2023/01/27 13:15:30;;;;;;;33.07;17.20;;;-1.00;67.30;;;;;;4635663;30;116174;-81
2023/01/27 13:17:58;;;;;;;38.47;18.27;;;-1.10;67.40;;;;;;4650153;30;114719;-81
2023/01/27 13:20:39;;;;;;;40.28;19.27;;;-1.10;67.50;;;;;;4648781;30;114880;-82
2023/01/27 13:23:09;;;;;;;40.97;19.88;;;-1.00;67.60;;;;;;4649057;30;115405;-82
2023/01/27 13:26:07;;;;;;;40.90;19.80;;;-1.00;67.70;;;;;;4649182;30;114695;-82
2023/01/27 13:29:08;;;;;;;38.08;18.52;;;-0.90;67.40;;;;;;4649016;30;115008;-81
2023/01/27 13:31:54;;;;;;;37.58;19.02;;;-0.90;67.40;;;;;;4660345;30;116393;-82
2023/01/27 13:34:45;;;;;;;36.88;17.90;;;-0.90;67.10;;;;;;4636482;30;115837;-81